14:57
Airports
Links
Donate
Help keep this website running!
PayPal
Bitcoin
METAR
TNCE 161355Z AUTO 06014KT 020V090 //// // ///////// 28/23 Q1018 RE//
Current Weather Conditions at TNCE
13:55:00 16-01-18
Automated station, no observer
Altimeter:30.06 hg
Temp:28.0°c 82°f
Dew point:23.0°c 73°f
Wind:14 knots, 16.1 mph, 7 m/s, from 60°
Visibility:Not reported
Past METAR reports
12:55:00 16-01-18
Automated station, no observer
Altimeter:30.06 hg
Temp:27.0°c 81°f
Dew point:23.0°c 73°f
Wind:12 knots, 13.8 mph, 6 m/s, from 80°
Visibility:Not reported
TNCE 161255Z AUTO 08012KT 040V120 //// // ///////// 27/23 Q1018 RE//
11:55:00 16-01-18
Automated station, no observer
Altimeter:30.03 hg
Temp:26.0°c 79°f
Dew point:22.0°c 72°f
Wind:11 knots, 12.7 mph, 6 m/s, from 80°
Visibility:Not reported
TNCE 161155Z AUTO 08011KT 040V110 //// // ///////// 26/22 Q1017 RE//
10:55:00 16-01-18
Automated station, no observer
Altimeter:30.00 hg
Temp:25.0°c 77°f
Dew point:22.0°c 72°f
Wind:9 knots, 10.4 mph, 5 m/s, from 80°
Visibility:Not reported
TNCE 161055Z AUTO 08009KT 050V120 //// // ///////// 25/22 Q1016 RE//
09:55:00 16-01-18
Automated station, no observer
Altimeter:29.97 hg
Temp:25.0°c 77°f
Dew point:23.0°c 73°f
Wind:11 knots, 12.7 mph, 6 m/s, from 70°
Visibility:Not reported
TNCE 160955Z AUTO 07011KT 040V100 //// // ///////// 25/23 Q1015 RE//
TAF
No TAF for TNCE
Forecast at TNCE
No Forecast Reports for TNCE